createdAt,value
2022-08-21T00:00:28.059Z,44.42
2022-08-21T00:01:03.243Z,46.33
2022-08-21T00:01:42.292Z,46.30
2022-08-21T00:02:17.868Z,45.35
2022-08-21T00:02:54.421Z,44.30
2022-08-21T00:03:28.819Z,45.38
2022-08-21T00:04:06.479Z,44.53
2022-08-21T00:04:48.322Z,45.55
2022-08-21T00:06:06.062Z,44.58
2022-08-21T00:06:40.915Z,45.70
2022-08-21T00:07:14.147Z,47.83
2022-08-21T00:07:49.085Z,44.97
2022-08-21T00:08:23.804Z,45.25
2022-08-21T00:08:57.039Z,46.00
2022-08-21T00:09:32.409Z,45.55
2022-08-21T00:10:08.093Z,45.78
2022-08-21T00:10:44.366Z,44.10
2022-08-21T00:11:17.904Z,44.40
2022-08-21T00:11:52.034Z,44.28
2022-08-21T00:12:26.724Z,45.20
2022-08-21T00:13:01.137Z,45.35
2022-08-21T00:13:36.857Z,45.95
2022-08-21T00:14:11.507Z,44.92
2022-08-21T00:14:46.163Z,45.08
2022-08-21T00:15:24.175Z,43.75
2022-08-21T00:15:59.025Z,46.47
2022-08-21T00:16:33.059Z,44.38
2022-08-21T00:17:09.824Z,45.70
2022-08-21T00:17:44.414Z,44.58
2022-08-21T00:18:20.026Z,44.80
2022-08-21T00:18:55.073Z,45.67
2022-08-21T00:19:28.487Z,44.70
2022-08-21T00:20:02.418Z,44.95
2022-08-21T00:20:38.071Z,46.38
2022-08-21T00:21:13.053Z,45.50
2022-08-21T00:21:46.900Z,45.00
2022-08-21T00:22:22.270Z,44.88
2022-08-21T00:22:57.577Z,45.28
2022-08-21T00:23:33.020Z,44.55
2022-08-21T00:24:07.631Z,45.58
2022-08-21T00:24:45.619Z,43.95
2022-08-21T00:25:21.875Z,44.20
2022-08-21T00:26:36.859Z,44.35
2022-08-21T00:27:15.188Z,44.70
2022-08-21T00:27:50.185Z,46.55
2022-08-21T00:28:27.031Z,45.25
2022-08-21T00:29:03.120Z,46.15
2022-08-21T00:29:37.357Z,45.40
2022-08-21T00:30:12.073Z,45.88
2022-08-21T00:30:58.914Z,45.33
2022-08-21T00:31:33.198Z,44.90
2022-08-21T00:32:08.730Z,46.30
2022-08-21T00:32:44.876Z,43.60
2022-08-21T00:33:17.845Z,45.47
2022-08-21T00:33:51.930Z,45.10
2022-08-21T00:34:27.991Z,44.97
2022-08-21T00:35:01.745Z,44.72
2022-08-21T00:35:37.791Z,46.08
2022-08-21T00:36:14.104Z,46.40
2022-08-21T00:36:48.352Z,45.75
2022-08-21T00:37:22.459Z,44.88
2022-08-21T00:37:58.171Z,45.25
2022-08-21T00:38:32.618Z,46.95
2022-08-21T00:39:07.949Z,46.30
2022-08-21T00:39:42.931Z,45.13
2022-08-21T00:40:18.777Z,44.33
2022-08-21T00:40:55.441Z,46.60
2022-08-21T00:41:37.523Z,45.63
2022-08-21T00:42:16.397Z,44.47
2022-08-21T00:42:53.611Z,46.25
2022-08-21T00:43:30.605Z,44.85
2022-08-21T00:44:05.430Z,45.55
2022-08-21T00:44:39.808Z,43.70
2022-08-21T00:45:16.534Z,46.50
2022-08-21T00:45:50.203Z,46.10
2022-08-21T00:46:28.138Z,46.00
2022-08-21T00:47:04.734Z,46.10
2022-08-21T00:47:38.733Z,47.15
2022-08-21T00:48:15.690Z,47.45
2022-08-21T00:48:50.417Z,44.88
2022-08-21T00:49:27.871Z,46.30
2022-08-21T00:50:03.201Z,45.17
2022-08-21T00:50:38.518Z,44.67
2022-08-21T00:51:13.857Z,47.70
2022-08-21T00:51:50.722Z,48.92
2022-08-21T00:52:25.173Z,45.03
2022-08-21T00:52:59.999Z,44.80
2022-08-21T00:53:34.903Z,44.92
2022-08-21T00:54:13.625Z,46.00
2022-08-21T00:54:55.337Z,46.65
2022-08-21T00:55:32.955Z,45.70
2022-08-21T00:56:09.443Z,46.67
2022-08-21T00:56:46.583Z,45.75
2022-08-21T00:57:24.956Z,44.75
2022-08-21T00:57:59.594Z,45.95
2022-08-21T00:58:37.534Z,43.83
2022-08-21T00:59:12.440Z,45.83
2022-08-21T00:59:47.237Z,47.13
2022-08-21T01:00:26.039Z,46.67
2022-08-21T01:01:05.601Z,45.65
2022-08-21T01:01:42.644Z,44.92
2022-08-21T01:02:17.768Z,44.75
2022-08-21T01:02:51.954Z,45.03
2022-08-21T01:03:25.882Z,44.70
2022-08-21T01:04:01.053Z,45.58
2022-08-21T01:04:35.378Z,45.50
2022-08-21T01:05:09.996Z,45.08
2022-08-21T01:05:45.247Z,45.00
2022-08-21T01:06:20.275Z,44.65
2022-08-21T01:06:54.433Z,45.78
2022-08-21T01:07:29.417Z,46.28
2022-08-21T01:08:03.431Z,46.28
2022-08-21T01:08:37.859Z,45.65
2022-08-21T01:09:22.469Z,45.15
2022-08-21T01:09:56.409Z,45.30
2022-08-21T01:10:30.835Z,46.05
2022-08-21T01:11:05.574Z,45.15
2022-08-21T01:11:41.083Z,45.17
2022-08-21T01:12:15.751Z,45.03
2022-08-21T01:12:52.972Z,45.47
2022-08-21T01:13:26.824Z,43.55
2022-08-21T01:14:02.045Z,45.42
2022-08-21T01:14:37.213Z,44.83
2022-08-21T01:15:12.090Z,45.22
2022-08-21T01:15:47.329Z,44.03
2022-08-21T01:16:24.624Z,45.85
2022-08-21T01:16:59.398Z,43.67
2022-08-21T01:17:33.786Z,44.13
2022-08-21T01:18:10.278Z,44.45
2022-08-21T01:18:44.043Z,44.00
2022-08-21T01:19:18.786Z,42.92
2022-08-21T01:19:54.511Z,44.42
2022-08-21T01:20:32.734Z,43.28
2022-08-21T01:21:12.687Z,43.38
2022-08-21T01:21:49.804Z,42.70
2022-08-21T01:22:24.091Z,42.47
2022-08-21T01:22:59.431Z,42.95
2022-08-21T01:23:34.787Z,41.65
2022-08-21T01:24:09.147Z,41.70
2022-08-21T01:24:43.339Z,42.08
2022-08-21T01:25:18.809Z,42.63
2022-08-21T01:25:52.796Z,42.88
2022-08-21T01:26:34.453Z,39.78
2022-08-21T01:27:08.623Z,42.00
2022-08-21T01:27:42.793Z,41.85
2022-08-21T01:28:17.874Z,41.30
2022-08-21T01:28:54.988Z,41.40
2022-08-21T01:29:31.729Z,42.67
2022-08-21T01:30:11.462Z,41.53
2022-08-21T01:30:46.900Z,40.20
2022-08-21T01:31:26.217Z,41.72
2022-08-21T01:32:26.009Z,40.17
2022-08-21T01:33:01.336Z,42.13
2022-08-21T01:33:36.784Z,40.50
2022-08-21T01:34:11.648Z,41.65
2022-08-21T01:34:46.895Z,39.45
2022-08-21T01:35:21.228Z,39.85
2022-08-21T01:35:56.565Z,39.28
2022-08-21T01:36:32.822Z,40.20
2022-08-21T01:37:07.573Z,40.28
2022-08-21T01:37:43.107Z,39.53
2022-08-21T01:38:17.792Z,38.25
2022-08-21T01:38:52.140Z,38.22
2022-08-21T01:39:30.673Z,39.63
2022-08-21T01:40:06.455Z,38.92
2022-08-21T01:40:42.488Z,39.28
2022-08-21T01:41:17.965Z,39.08
2022-08-21T01:41:51.430Z,38.58
2022-08-21T01:42:26.461Z,39.25
2022-08-21T01:43:01.643Z,37.72
2022-08-21T01:43:39.391Z,38.25
2022-08-21T01:44:13.853Z,38.42
2022-08-21T01:44:49.287Z,38.03
2022-08-21T01:45:27.665Z,39.20
2022-08-21T01:46:01.592Z,39.45
2022-08-21T01:46:36.892Z,38.80
2022-08-21T01:47:11.873Z,38.47
2022-08-21T01:47:45.946Z,39.05
2022-08-21T01:48:21.792Z,38.25
2022-08-21T01:48:55.790Z,37.60
2022-08-21T01:49:29.428Z,39.13
2022-08-21T01:50:04.582Z,38.47
2022-08-21T01:50:38.331Z,38.88
2022-08-21T01:51:12.379Z,38.85
2022-08-21T01:51:48.966Z,39.40
2022-08-21T01:52:22.704Z,39.65
2022-08-21T01:52:57.048Z,39.47
2022-08-21T01:53:35.114Z,39.45
2022-08-21T01:54:09.695Z,37.47
2022-08-21T01:54:44.236Z,40.25
2022-08-21T01:55:20.694Z,38.10
2022-08-21T01:55:55.464Z,39.13
2022-08-21T01:56:29.051Z,39.85
2022-08-21T01:57:04.004Z,38.90
2022-08-21T01:57:38.864Z,37.28
2022-08-21T01:58:12.887Z,37.53
2022-08-21T01:58:48.963Z,38.22
2022-08-21T01:59:24.266Z,37.60
2022-08-21T01:59:58.398Z,39.85
2022-08-21T02:00:32.859Z,37.70
2022-08-21T02:01:07.493Z,37.35
2022-08-21T02:01:41.395Z,38.10
2022-08-21T02:02:16.568Z,37.35
2022-08-21T02:02:50.895Z,38.53
2022-08-21T02:03:32.866Z,38.58
2022-08-21T02:04:10.975Z,37.42
2022-08-21T02:04:44.870Z,38.20
2022-08-21T02:05:20.499Z,38.20
2022-08-21T02:05:56.052Z,38.65
2022-08-21T02:06:30.093Z,37.75
2022-08-21T02:07:05.591Z,37.15
2022-08-21T02:07:44.801Z,36.63
2022-08-21T02:08:18.269Z,36.22
2022-08-21T02:08:51.706Z,38.53
2022-08-21T02:09:26.662Z,37.15
2022-08-21T02:10:02.468Z,37.75
2022-08-21T02:10:37.055Z,37.33
2022-08-21T02:11:11.345Z,37.28
2022-08-21T02:11:45.629Z,37.28
2022-08-21T02:12:19.916Z,38.10
2022-08-21T02:13:17.285Z,36.45
2022-08-21T02:13:51.392Z,36.47
2022-08-21T02:14:32.449Z,37.72
2022-08-21T02:15:10.033Z,37.80
2022-08-21T02:15:44.411Z,35.97
2022-08-21T02:16:19.642Z,37.28
2022-08-21T02:17:05.286Z,35.95
2022-08-21T02:17:44.889Z,36.33
2022-08-21T02:18:20.279Z,37.15
2022-08-21T02:18:54.659Z,36.42
2022-08-21T02:19:28.360Z,37.28
2022-08-21T02:20:16.280Z,37.60
2022-08-21T02:20:56.030Z,35.97
2022-08-21T02:22:08.715Z,34.70
2022-08-21T02:22:42.957Z,37.03
2022-08-21T02:23:15.845Z,38.05
2022-08-21T02:23:50.965Z,37.92
2022-08-21T02:24:24.769Z,37.42
2022-08-21T02:24:58.796Z,35.45
2022-08-21T02:25:33.315Z,35.97
2022-08-21T02:26:09.580Z,36.60
2022-08-21T02:26:43.625Z,36.65
2022-08-21T02:27:18.611Z,36.65
2022-08-21T02:28:02.330Z,37.67
2022-08-21T02:28:35.798Z,36.47
2022-08-21T02:29:10.439Z,37.70
2022-08-21T02:29:44.754Z,36.15
2022-08-21T02:30:20.301Z,37.13
2022-08-21T02:30:53.241Z,36.33
2022-08-21T02:31:28.526Z,36.60
2022-08-21T02:32:03.244Z,37.25
2022-08-21T02:32:37.970Z,36.38
2022-08-21T02:33:12.904Z,34.80
2022-08-21T02:33:47.136Z,36.75
2022-08-21T02:34:21.852Z,37.03
2022-08-21T02:35:04.826Z,36.30
2022-08-21T02:35:38.739Z,35.28
2022-08-21T02:36:14.022Z,37.60
2022-08-21T02:36:59.636Z,37.10
2022-08-21T02:37:35.807Z,38.60
2022-08-21T02:38:12.828Z,36.30
2022-08-21T02:38:47.720Z,36.67
2022-08-21T02:39:27.275Z,35.90
2022-08-21T02:40:01.402Z,35.35
2022-08-21T02:40:36.833Z,36.33
2022-08-21T02:41:13.395Z,35.70
2022-08-21T02:41:48.147Z,35.65
2022-08-21T02:42:21.333Z,35.13
2022-08-21T02:42:58.248Z,36.35
2022-08-21T02:43:32.863Z,36.28
2022-08-21T02:44:07.087Z,36.63
2022-08-21T02:44:41.763Z,34.83
2022-08-21T02:45:18.463Z,36.20
2022-08-21T02:45:52.909Z,34.90
2022-08-21T02:46:27.503Z,35.85
2022-08-21T02:47:03.008Z,36.25
2022-08-21T02:47:36.078Z,37.00
2022-08-21T02:48:11.160Z,35.17
2022-08-21T02:48:44.569Z,35.78
2022-08-21T02:49:20.093Z,35.40
2022-08-21T02:49:55.191Z,36.45
2022-08-21T02:50:30.115Z,33.63
2022-08-21T02:51:07.339Z,34.88
2022-08-21T02:51:41.124Z,37.80
2022-08-21T02:52:16.404Z,36.45
2022-08-21T02:52:55.798Z,34.75
2022-08-21T02:53:30.461Z,34.47
2022-08-21T02:54:04.955Z,35.85
2022-08-21T02:54:38.896Z,35.67
2022-08-21T02:55:12.281Z,34.90
2022-08-21T02:55:48.436Z,34.53
2022-08-21T02:56:23.820Z,36.47
2022-08-21T02:56:59.086Z,35.03
2022-08-21T02:57:34.553Z,36.17
2022-08-21T02:58:10.488Z,36.60
2022-08-21T02:58:45.082Z,35.70
2022-08-21T02:59:20.019Z,36.38
2022-08-21T02:59:55.254Z,35.33
2022-08-21T03:00:32.588Z,35.70
2022-08-21T03:01:11.269Z,35.42
2022-08-21T03:01:45.575Z,35.75
2022-08-21T03:02:19.673Z,35.53
2022-08-21T03:02:54.734Z,34.95
2022-08-21T03:03:30.604Z,36.28
2022-08-21T03:04:05.588Z,36.13
2022-08-21T03:04:46.037Z,35.47
2022-08-21T03:05:21.536Z,36.88
2022-08-21T03:05:55.305Z,35.08
2022-08-21T03:06:34.557Z,35.28
2022-08-21T03:07:11.032Z,34.88
2022-08-21T03:07:44.652Z,35.17
2022-08-21T03:08:21.071Z,36.40
2022-08-21T03:08:56.701Z,36.50
2022-08-21T03:09:30.589Z,36.10
2022-08-21T03:10:04.901Z,36.05
2022-08-21T03:10:40.811Z,37.30
2022-08-21T03:11:14.458Z,35.83
2022-08-21T03:11:50.296Z,35.78
2022-08-21T03:12:24.185Z,38.53
2022-08-21T03:12:59.646Z,37.25
2022-08-21T03:13:34.973Z,37.45
2022-08-21T03:14:09.749Z,35.85
2022-08-21T03:14:43.219Z,37.00
2022-08-21T03:15:18.420Z,37.75
2022-08-21T03:15:53.429Z,37.00
2022-08-21T03:16:30.942Z,39.15
2022-08-21T03:17:08.895Z,38.35
2022-08-21T03:17:44.643Z,35.45
2022-08-21T03:18:19.151Z,37.22
2022-08-21T03:18:55.085Z,37.58
2022-08-21T03:19:27.949Z,36.25
2022-08-21T03:20:02.210Z,37.65
2022-08-21T03:20:39.196Z,38.00
2022-08-21T03:21:14.818Z,37.30
2022-08-21T03:21:48.285Z,37.13
2022-08-21T03:22:23.788Z,38.72
2022-08-21T03:22:57.511Z,38.10
2022-08-21T03:23:33.675Z,36.45
2022-08-21T03:24:11.337Z,38.70
2022-08-21T03:24:46.872Z,37.72
2022-08-21T03:25:23.416Z,38.25
2022-08-21T03:26:14.913Z,38.85
2022-08-21T03:26:50.769Z,37.08
2022-08-21T03:27:25.571Z,37.65
2022-08-21T03:28:00.207Z,37.75
2022-08-21T03:28:35.163Z,54.22
2022-08-21T03:29:10.042Z,41.90
2022-08-21T03:29:44.229Z,39.20
2022-08-21T03:30:19.093Z,41.65
2022-08-21T03:30:56.089Z,43.97
2022-08-21T03:31:32.942Z,65.43
2022-08-21T03:32:10.485Z,45.78
2022-08-21T03:32:45.226Z,39.45
2022-08-21T03:33:20.634Z,40.15
2022-08-21T03:33:58.191Z,41.03
2022-08-21T03:34:33.030Z,39.85
2022-08-21T03:35:06.725Z,40.00
2022-08-21T03:35:40.323Z,39.08
2022-08-21T03:36:15.489Z,44.53
2022-08-21T03:36:50.501Z,41.55
2022-08-21T03:37:25.769Z,41.10
2022-08-21T03:38:00.709Z,39.00
2022-08-21T03:38:36.936Z,40.80
2022-08-21T03:39:10.912Z,39.45
2022-08-21T03:39:46.390Z,40.13
2022-08-21T03:40:22.176Z,40.25
2022-08-21T03:40:58.005Z,39.78
2022-08-21T03:41:32.389Z,39.78
2022-08-21T03:42:06.677Z,41.17
2022-08-21T03:42:41.521Z,38.42
2022-08-21T03:43:15.252Z,39.75
2022-08-21T03:43:50.515Z,39.28
2022-08-21T03:44:24.662Z,37.38
2022-08-21T03:44:59.000Z,41.05
2022-08-21T03:45:33.626Z,40.30
2022-08-21T03:46:07.879Z,41.13
2022-08-21T03:46:41.817Z,40.30
2022-08-21T03:47:18.254Z,41.83
2022-08-21T03:47:56.986Z,41.35
2022-08-21T03:48:31.313Z,40.30
2022-08-21T03:49:06.612Z,40.20
2022-08-21T03:49:41.361Z,40.60
2022-08-21T03:50:17.893Z,40.63
2022-08-21T03:50:56.745Z,42.20
2022-08-21T03:51:33.958Z,42.20
2022-08-21T03:52:07.061Z,43.13
2022-08-21T03:52:42.417Z,43.42
2022-08-21T03:53:18.098Z,44.10
2022-08-21T03:53:53.049Z,41.67
2022-08-21T03:54:28.789Z,40.10
2022-08-21T03:55:03.593Z,41.70
2022-08-21T03:55:37.583Z,43.70
2022-08-21T03:56:14.050Z,41.88
2022-08-21T03:56:49.130Z,42.85
2022-08-21T03:57:24.470Z,41.88
2022-08-21T03:57:59.877Z,41.50
2022-08-21T03:58:50.863Z,40.83
2022-08-21T03:59:27.123Z,42.72
2022-08-21T04:00:00.815Z,42.47
2022-08-21T04:00:34.973Z,43.67
2022-08-21T04:01:10.573Z,44.10
2022-08-21T04:01:53.214Z,41.92
2022-08-21T04:02:28.926Z,43.67
2022-08-21T04:03:03.685Z,42.05
2022-08-21T04:03:39.391Z,41.45
2022-08-21T04:04:13.152Z,42.85
2022-08-21T04:04:49.182Z,43.60
2022-08-21T04:05:28.861Z,44.33
2022-08-21T04:06:03.647Z,42.30
2022-08-21T04:06:38.047Z,43.25
2022-08-21T04:07:12.711Z,43.95
2022-08-21T04:07:47.386Z,42.50
2022-08-21T04:08:21.872Z,41.55
2022-08-21T04:08:58.350Z,43.05
2022-08-21T04:09:32.907Z,44.30
2022-08-21T04:10:07.976Z,44.30
2022-08-21T04:10:44.117Z,43.15
2022-08-21T04:11:18.609Z,43.15
2022-08-21T04:11:52.799Z,43.10
2022-08-21T04:12:28.148Z,43.95
2022-08-21T04:13:01.860Z,43.72
2022-08-21T04:13:35.894Z,42.45
2022-08-21T04:14:19.852Z,43.95
2022-08-21T04:14:54.538Z,45.42
2022-08-21T04:15:28.971Z,45.35
2022-08-21T04:16:04.013Z,43.55
2022-08-21T04:16:40.236Z,43.10
2022-08-21T04:17:14.778Z,43.25
2022-08-21T04:17:50.055Z,44.13
2022-08-21T04:18:24.379Z,44.67
2022-08-21T04:18:58.672Z,45.85
2022-08-21T04:19:33.304Z,44.25
2022-08-21T04:20:08.237Z,43.63
2022-08-21T04:20:45.328Z,43.45
2022-08-21T04:21:24.468Z,44.42
2022-08-21T04:21:59.184Z,45.65
2022-08-21T04:22:35.445Z,44.08
2022-08-21T04:23:10.014Z,44.75
2022-08-21T04:23:44.070Z,46.92
2022-08-21T04:24:21.486Z,44.33
2022-08-21T04:24:55.417Z,45.35
2022-08-21T04:25:29.649Z,45.92
2022-08-21T04:26:04.597Z,45.50
2022-08-21T04:26:39.689Z,46.50
2022-08-21T04:27:14.074Z,46.83
2022-08-21T04:27:50.092Z,46.25
2022-08-21T04:28:28.861Z,46.35
2022-08-21T04:29:03.994Z,46.25
2022-08-21T04:29:40.152Z,47.00
2022-08-21T04:30:16.353Z,46.10
2022-08-21T04:30:50.623Z,47.22
2022-08-21T04:31:26.968Z,47.47
2022-08-21T04:32:00.588Z,49.20
2022-08-21T04:32:35.092Z,46.85
2022-08-21T04:33:10.560Z,46.75
2022-08-21T04:33:44.140Z,48.40
2022-08-21T04:34:18.107Z,46.58
2022-08-21T04:34:53.345Z,48.13
2022-08-21T04:35:28.439Z,47.28
2022-08-21T04:36:02.428Z,48.53
2022-08-21T04:36:39.125Z,49.13
2022-08-21T04:37:14.052Z,48.38
2022-08-21T04:37:48.687Z,48.53
2022-08-21T04:38:23.554Z,48.20
2022-08-21T04:38:57.320Z,49.97
2022-08-21T04:39:33.105Z,50.88
2022-08-21T04:40:10.039Z,50.25
2022-08-21T04:40:44.110Z,48.30
2022-08-21T04:41:18.338Z,49.20
2022-08-21T04:42:02.673Z,49.13
2022-08-21T04:42:45.920Z,48.83
2022-08-21T04:43:20.624Z,50.53
2022-08-21T04:43:56.755Z,50.78
2022-08-21T04:44:31.159Z,47.78
2022-08-21T04:45:06.796Z,50.08
2022-08-21T04:45:41.472Z,50.17
2022-08-21T04:46:17.467Z,49.13
2022-08-21T04:46:51.779Z,50.75
2022-08-21T04:47:52.008Z,50.85
2022-08-21T04:48:22.909Z,52.17
2022-08-21T04:48:57.426Z,51.08
2022-08-21T04:49:33.031Z,50.72
2022-08-21T04:50:09.412Z,49.40
2022-08-21T04:50:49.385Z,52.00
2022-08-21T04:51:26.287Z,52.53
2022-08-21T04:52:01.325Z,53.53
2022-08-21T04:52:35.001Z,50.78
2022-08-21T04:53:13.313Z,52.03
2022-08-21T04:53:48.592Z,49.63
2022-08-21T04:54:24.542Z,51.10
2022-08-21T04:55:01.084Z,50.90
2022-08-21T04:55:35.633Z,50.33
2022-08-21T04:56:10.755Z,52.72
2022-08-21T04:56:48.619Z,50.80
2022-08-21T04:57:23.760Z,50.60
2022-08-21T04:58:20.356Z,53.13
2022-08-21T04:58:56.432Z,52.15
2022-08-21T04:59:32.693Z,51.67
2022-08-21T05:00:14.006Z,51.80
2022-08-21T05:00:48.793Z,52.30
2022-08-21T05:01:24.223Z,51.22
2022-08-21T05:02:00.506Z,52.95
2022-08-21T05:02:35.377Z,53.67
2022-08-21T05:03:10.527Z,53.63
2022-08-21T05:03:45.695Z,51.03
2022-08-21T05:04:23.969Z,52.10
2022-08-21T05:04:57.664Z,51.40
2022-08-21T05:05:34.864Z,53.53
2022-08-21T05:06:11.612Z,50.75
2022-08-21T05:06:47.277Z,51.92
2022-08-21T05:07:42.324Z,52.80
2022-08-21T05:08:20.755Z,50.60
2022-08-21T05:09:02.063Z,52.53
2022-08-21T05:09:37.663Z,50.65
2022-08-21T05:10:13.998Z,51.03
2022-08-21T05:10:49.240Z,53.08
2022-08-21T05:11:24.809Z,52.40
2022-08-21T05:12:00.690Z,51.42
2022-08-21T05:12:35.247Z,52.60
2022-08-21T05:13:11.866Z,51.63
2022-08-21T05:13:45.862Z,51.70
2022-08-21T05:14:21.015Z,52.35
2022-08-21T05:14:54.683Z,52.05
2022-08-21T05:15:29.283Z,52.50
2022-08-21T05:16:05.461Z,52.35
2022-08-21T05:16:39.350Z,51.20
2022-08-21T05:17:12.975Z,52.97
2022-08-21T05:17:53.619Z,51.65
2022-08-21T05:18:36.111Z,52.70
2022-08-21T05:19:11.185Z,52.13
2022-08-21T05:19:47.096Z,51.70
2022-08-21T05:20:21.443Z,52.00
2022-08-21T05:20:57.125Z,52.53
2022-08-21T05:21:30.839Z,53.13
2022-08-21T05:22:04.390Z,51.00
2022-08-21T05:22:38.678Z,51.83
2022-08-21T05:23:13.801Z,53.28
2022-08-21T05:23:46.948Z,53.00
2022-08-21T05:24:22.357Z,53.55
2022-08-21T05:24:56.381Z,51.55
2022-08-21T05:25:32.837Z,51.60
2022-08-21T05:26:09.954Z,54.40
2022-08-21T05:26:52.624Z,51.88
2022-08-21T05:27:27.819Z,50.58
2022-08-21T05:28:02.496Z,52.13
2022-08-21T05:28:37.105Z,53.47
2022-08-21T05:29:12.867Z,53.22
2022-08-21T05:29:47.598Z,52.72
2022-08-21T05:30:21.597Z,52.63
2022-08-21T05:30:55.210Z,52.25
2022-08-21T05:31:30.491Z,53.45
2022-08-21T05:32:10.459Z,52.47
2022-08-21T05:32:43.842Z,53.50
2022-08-21T05:33:19.245Z,53.70
2022-08-21T05:33:53.625Z,52.90
2022-08-21T05:34:29.366Z,52.45
2022-08-21T05:35:05.047Z,53.63
2022-08-21T05:35:38.743Z,52.35
2022-08-21T05:36:12.796Z,54.40
2022-08-21T05:36:47.658Z,53.30
2022-08-21T05:37:21.973Z,51.92
2022-08-21T05:37:56.043Z,50.85
2022-08-21T05:38:30.944Z,53.90
2022-08-21T05:39:05.770Z,51.75
2022-08-21T05:40:20.533Z,52.80
2022-08-21T05:40:37.234Z,50.30
2022-08-21T05:41:11.580Z,51.78
2022-08-21T05:41:45.829Z,50.92
2022-08-21T05:42:20.401Z,52.25
2022-08-21T05:42:56.316Z,50.47
2022-08-21T05:43:32.089Z,52.33
2022-08-21T05:44:10.782Z,51.85
2022-08-21T05:44:45.673Z,50.85
2022-08-21T05:45:27.903Z,51.33
2022-08-21T05:46:16.641Z,53.65
2022-08-21T05:46:52.300Z,52.20
2022-08-21T05:47:26.560Z,51.80
2022-08-21T05:48:00.792Z,51.72
2022-08-21T05:48:39.917Z,52.90
2022-08-21T05:49:14.633Z,50.70
2022-08-21T05:49:48.634Z,51.30
2022-08-21T05:50:23.736Z,51.38
2022-08-21T05:51:07.181Z,50.40
2022-08-21T05:51:43.526Z,50.15
2022-08-21T05:52:21.454Z,50.17
2022-08-21T05:52:56.647Z,52.58
2022-08-21T05:53:43.890Z,50.92
2022-08-21T05:54:18.237Z,50.88
2022-08-21T05:54:55.486Z,49.85
2022-08-21T05:55:30.754Z,50.92
2022-08-21T05:56:10.219Z,51.65
2022-08-21T05:56:46.556Z,51.30
2022-08-21T05:57:22.237Z,53.00
2022-08-21T05:57:56.490Z,49.47
2022-08-21T05:58:30.368Z,50.05
2022-08-21T05:59:08.757Z,50.17
2022-08-21T05:59:42.451Z,51.38
2022-08-21T06:00:16.205Z,50.65
2022-08-21T06:00:51.920Z,49.17
2022-08-21T06:01:25.712Z,50.58
2022-08-21T06:02:05.007Z,51.03
2022-08-21T06:02:40.343Z,49.42
2022-08-21T06:03:19.173Z,50.15
2022-08-21T06:03:54.116Z,49.97
2022-08-21T06:04:30.864Z,51.78
2022-08-21T06:05:05.603Z,50.70
2022-08-21T06:05:40.435Z,48.58
2022-08-21T06:06:14.263Z,49.63
2022-08-21T06:06:48.978Z,48.47
2022-08-21T06:07:23.390Z,49.03
2022-08-21T06:07:57.511Z,49.35
2022-08-21T06:08:32.280Z,50.47
2022-08-21T06:09:06.525Z,50.08
2022-08-21T06:09:43.118Z,49.60
2022-08-21T06:10:17.501Z,50.97
2022-08-21T06:10:51.469Z,49.45
2022-08-21T06:11:29.115Z,49.97
2022-08-21T06:12:05.976Z,51.65
2022-08-21T06:12:42.526Z,49.83
2022-08-21T06:13:17.333Z,48.67
2022-08-21T06:13:52.603Z,49.15
2022-08-21T06:14:26.004Z,50.20
2022-08-21T06:15:00.496Z,49.50
2022-08-21T06:15:35.222Z,46.88
2022-08-21T06:16:15.916Z,48.88
2022-08-21T06:16:50.362Z,46.47
2022-08-21T06:17:26.131Z,47.08
2022-08-21T06:18:00.725Z,47.75
2022-08-21T06:18:34.806Z,46.95
2022-08-21T06:19:10.487Z,47.20
2022-08-21T06:19:44.662Z,46.92
2022-08-21T06:20:21.331Z,47.60
2022-08-21T06:20:57.869Z,46.90
2022-08-21T06:21:35.192Z,48.67
2022-08-21T06:22:10.556Z,47.95
2022-08-21T06:22:46.348Z,45.60
2022-08-21T06:23:19.872Z,47.83
2022-08-21T06:23:54.069Z,47.20
2022-08-21T06:24:29.379Z,47.72
2022-08-21T06:25:04.096Z,47.88
2022-08-21T06:25:38.913Z,46.88
2022-08-21T06:26:15.592Z,46.10
2022-08-21T06:26:51.286Z,46.42
2022-08-21T06:27:26.734Z,45.67
2022-08-21T06:28:07.383Z,46.47
2022-08-21T06:28:41.913Z,46.92
2022-08-21T06:29:18.899Z,48.33
2022-08-21T06:29:57.965Z,46.97
2022-08-21T06:30:32.146Z,47.83
2022-08-21T06:31:13.241Z,48.72
2022-08-21T06:31:48.152Z,44.47
2022-08-21T06:32:23.449Z,47.75
2022-08-21T06:32:59.452Z,48.50
2022-08-21T06:33:34.415Z,47.38
2022-08-21T06:34:09.393Z,46.65
2022-08-21T06:34:44.561Z,47.13
2022-08-21T06:35:19.336Z,45.85
2022-08-21T06:35:53.032Z,46.92
2022-08-21T06:36:29.288Z,46.63
2022-08-21T06:37:02.978Z,47.28
2022-08-21T06:37:37.240Z,47.55
2022-08-21T06:38:11.768Z,48.55
2022-08-21T06:38:50.847Z,49.70
2022-08-21T06:39:32.277Z,48.47
2022-08-21T06:40:12.457Z,48.42
2022-08-21T06:40:48.112Z,45.40
2022-08-21T06:41:26.458Z,46.72
2022-08-21T06:42:01.956Z,46.15
2022-08-21T06:42:38.294Z,46.47
2022-08-21T06:43:17.184Z,46.92
2022-08-21T06:43:50.936Z,46.22
2022-08-21T06:44:25.088Z,45.10
2022-08-21T06:45:00.169Z,45.17
2022-08-21T06:45:34.410Z,45.45
2022-08-21T06:46:08.884Z,47.00
2022-08-21T06:46:47.554Z,44.72
2022-08-21T06:47:21.884Z,46.35
2022-08-21T06:47:56.663Z,43.95
2022-08-21T06:48:33.678Z,45.05
2022-08-21T06:49:08.835Z,46.30
2022-08-21T06:49:56.363Z,43.05
2022-08-21T06:50:29.920Z,45.35
2022-08-21T06:51:05.868Z,45.17
2022-08-21T06:51:41.516Z,43.80
2022-08-21T06:52:16.647Z,45.70
2022-08-21T06:52:50.181Z,47.72
2022-08-21T06:53:25.073Z,44.30
2022-08-21T06:53:59.459Z,44.38
2022-08-21T06:54:34.302Z,44.67
2022-08-21T06:55:21.727Z,43.67
2022-08-21T06:55:57.577Z,44.92
2022-08-21T06:56:32.517Z,44.20
2022-08-21T06:57:08.756Z,43.25
2022-08-21T06:57:43.187Z,44.53
2022-08-21T06:58:22.765Z,45.22
2022-08-21T06:58:57.233Z,43.72
2022-08-21T06:59:31.383Z,43.35
2022-08-21T07:00:09.965Z,44.33
2022-08-21T07:00:45.373Z,42.17
2022-08-21T07:01:20.033Z,44.47
2022-08-21T07:02:00.273Z,42.78
2022-08-21T07:02:35.200Z,44.58
2022-08-21T07:03:09.757Z,41.72
2022-08-21T07:03:45.543Z,42.22
2022-08-21T07:04:19.607Z,43.65
2022-08-21T07:04:54.460Z,42.70
2022-08-21T07:05:30.087Z,42.13
2022-08-21T07:06:04.767Z,42.30
2022-08-21T07:06:39.521Z,42.78
2022-08-21T07:07:14.080Z,43.85
2022-08-21T07:07:48.016Z,43.15
2022-08-21T07:08:24.019Z,41.90
2022-08-21T07:08:58.869Z,41.65
2022-08-21T07:09:34.903Z,42.63
2022-08-21T07:10:08.686Z,43.50
2022-08-21T07:10:55.923Z,42.70
2022-08-21T07:11:29.775Z,41.67
2022-08-21T07:12:04.530Z,43.92
2022-08-21T07:12:40.791Z,42.65
2022-08-21T07:13:14.618Z,42.72
2022-08-21T07:13:48.755Z,40.45
2022-08-21T07:14:24.241Z,43.33
2022-08-21T07:14:58.220Z,41.20
2022-08-21T07:15:32.214Z,42.17
2022-08-21T07:16:07.403Z,40.85
2022-08-21T07:16:42.123Z,41.05
2022-08-21T07:17:17.822Z,41.83
2022-08-21T07:17:52.972Z,41.28
2022-08-21T07:18:27.765Z,39.95
2022-08-21T07:19:02.689Z,41.25
2022-08-21T07:19:37.040Z,40.38
2022-08-21T07:20:12.090Z,39.33
2022-08-21T07:20:49.116Z,43.25
2022-08-21T07:21:25.968Z,40.10
2022-08-21T07:22:02.627Z,38.35
2022-08-21T07:22:39.005Z,40.60
2022-08-21T07:23:14.350Z,38.80
2022-08-21T07:23:49.165Z,40.47
2022-08-21T07:24:23.809Z,41.58
2022-08-21T07:24:57.780Z,41.20
2022-08-21T07:25:32.103Z,42.83
2022-08-21T07:26:07.617Z,41.53
2022-08-21T07:26:41.956Z,40.58
2022-08-21T07:27:16.111Z,40.78
2022-08-21T07:27:52.240Z,41.90
2022-08-21T07:28:26.960Z,39.42
2022-08-21T07:29:02.212Z,40.33
2022-08-21T07:29:36.703Z,38.85
2022-08-21T07:30:12.043Z,39.70
2022-08-21T07:30:47.305Z,40.85
2022-08-21T07:31:23.049Z,40.45
2022-08-21T07:31:57.226Z,40.30
2022-08-21T07:32:32.691Z,39.95
2022-08-21T07:33:06.792Z,38.30
2022-08-21T07:33:39.845Z,38.75
2022-08-21T07:34:15.888Z,37.38
2022-08-21T07:34:49.809Z,38.17
2022-08-21T07:35:24.216Z,36.33
2022-08-21T07:35:58.440Z,37.55
2022-08-21T07:36:33.271Z,36.47
2022-08-21T07:37:10.044Z,36.08
2022-08-21T07:37:44.282Z,37.13
2022-08-21T07:38:18.679Z,35.33
2022-08-21T07:38:53.102Z,36.28
2022-08-21T07:39:28.410Z,35.15
2022-08-21T07:40:02.615Z,37.75
2022-08-21T07:40:38.084Z,35.25
2022-08-21T07:41:15.159Z,44.35
2022-08-21T07:41:48.999Z,75.80
2022-08-21T07:42:24.000Z,49.83
2022-08-21T07:43:01.471Z,36.72
2022-08-21T07:43:37.150Z,36.35
2022-08-21T07:44:19.393Z,35.88